Time;durP1;ratioP1;P1;durP2;ratioP2;P2;SDS_P1;SDS_P2;PMS_P1;PMS_P2;Temp;Humidity;BMP_temperature;BMP_pressure;BME280_temperature;BME280_humidity;BME280_pressure;Samples;Min_cycle;Max_cycle;Signal;HPM_P1;HPM_P2
2022/09/30 00:01:50;;;;;;;51.88;4.53;;;8.40;99.90;;;;;;5047032;28;20034;-76
2022/09/30 00:04:21;;;;;;;51.60;4.70;;;8.50;99.90;;;;;;5044923;28;20084;-76
2022/09/30 00:06:48;;;;;;;16.48;3.67;;;8.40;99.90;;;;;;5045918;28;20108;-76
2022/09/30 00:09:14;;;;;;;2.42;2.25;;;8.30;99.90;;;;;;5025376;28;20057;-76
2022/09/30 00:11:41;;;;;;;3.00;2.70;;;8.20;99.90;;;;;;5045289;28;20104;-76
2022/09/30 00:14:11;;;;;;;8.35;2.97;;;8.10;99.90;;;;;;5028747;28;20037;-77
2022/09/30 00:16:37;;;;;;;11.63;3.47;;;8.10;99.90;;;;;;5043235;28;20045;-77
2022/09/30 00:19:04;;;;;;;27.88;3.80;;;8.00;99.90;;;;;;5029764;28;20060;-77
2022/09/30 00:21:32;;;;;;;4.38;3.08;;;8.10;99.90;;;;;;5046126;28;20169;-77
2022/09/30 00:23:59;;;;;;;49.70;4.72;;;8.00;99.90;;;;;;5044051;28;20093;-77
2022/09/30 00:26:25;;;;;;;6.85;3.00;;;8.10;99.90;;;;;;5040991;28;20053;-77
2022/09/30 00:28:55;;;;;;;2.92;2.72;;;8.10;99.90;;;;;;5044876;28;20050;-77
2022/09/30 00:31:23;;;;;;;13.35;3.50;;;8.10;99.90;;;;;;5041912;28;20107;-76
2022/09/30 00:34:05;;;;;;;3.95;2.85;;;8.10;99.90;;;;;;5029045;28;20045;-77
2022/09/30 00:36:52;;;;;;;3.00;2.70;;;8.20;99.90;;;;;;5024515;28;20053;-77
2022/09/30 00:39:24;;;;;;;3.25;2.95;;;8.10;99.90;;;;;;5041270;28;20041;-77
2022/09/30 00:41:57;;;;;;;3.60;2.65;;;8.10;99.90;;;;;;5040842;28;20049;-77
2022/09/30 00:44:49;;;;;;;3.63;3.30;;;8.10;99.90;;;;;;5036541;28;20049;-77
2022/09/30 00:47:29;;;;;;;5.05;3.80;;;8.00;99.90;;;;;;5043960;28;20402;-77
2022/09/30 00:49:59;;;;;;;4.40;4.00;;;8.10;99.90;;;;;;5045441;28;20053;-77
2022/09/30 00:52:25;;;;;;;3.95;3.55;;;8.00;99.90;;;;;;5043441;28;20055;-77
2022/09/30 00:54:52;;;;;;;4.43;4.03;;;8.00;99.90;;;;;;5044146;28;20041;-77
2022/09/30 00:57:18;;;;;;;4.18;3.75;;;8.10;99.90;;;;;;5046127;28;20052;-77
2022/09/30 00:59:48;;;;;;;4.95;4.55;;;8.20;99.90;;;;;;5045669;28;20053;-77
2022/09/30 01:02:13;;;;;;;5.45;4.90;;;8.10;99.90;;;;;;5044442;28;20046;-77
2022/09/30 01:04:41;;;;;;;4.65;4.25;;;8.10;99.90;;;;;;5040360;28;20048;-77
2022/09/30 01:07:08;;;;;;;5.70;5.20;;;8.10;99.90;;;;;;5044640;28;20034;-77
2022/09/30 01:09:36;;;;;;;5.22;4.72;;;8.00;99.90;;;;;;5039839;28;20060;-77
2022/09/30 01:12:07;;;;;;;5.47;4.97;;;8.10;99.90;;;;;;5040191;28;20062;-77
2022/09/30 01:14:34;;;;;;;4.90;4.20;;;8.10;99.90;;;;;;5044432;28;20053;-77
2022/09/30 01:17:23;;;;;;;5.55;5.05;;;8.10;99.90;;;;;;5039617;28;20085;-77
2022/09/30 01:19:50;;;;;;;6.50;5.55;;;8.00;99.90;;;;;;5041604;28;20045;-77
2022/09/30 01:22:37;;;;;;;6.53;5.38;;;7.90;99.90;;;;;;5039052;28;20452;-77
2022/09/30 01:25:18;;;;;;;6.13;5.50;;;7.90;99.90;;;;;;5038522;28;20436;-77
2022/09/30 01:28:15;;;;;;;7.32;6.45;;;8.00;99.90;;;;;;5043950;28;20041;-77
2022/09/30 01:30:59;;;;;;;8.35;6.97;;;7.90;99.90;;;;;;5027663;28;20052;-77
2022/09/30 01:33:56;;;;;;;7.10;6.40;;;8.00;99.90;;;;;;5041287;28;20061;-77
2022/09/30 01:36:46;;;;;;;7.53;6.68;;;8.20;99.90;;;;;;5039452;28;20072;-77
2022/09/30 01:39:35;;;;;;;8.80;6.78;;;8.20;99.90;;;;;;5038877;28;20045;-76
2022/09/30 01:42:27;;;;;;;7.13;6.43;;;8.20;99.90;;;;;;5041006;28;20847;-76
2022/09/30 01:45:07;;;;;;;6.47;5.88;;;8.20;99.90;;;;;;5013750;28;20045;-77
2022/09/30 01:47:45;;;;;;;7.30;6.50;;;8.20;99.90;;;;;;5044052;28;20048;-77
2022/09/30 01:50:22;;;;;;;7.40;6.55;;;8.30;99.90;;;;;;5037406;28;20054;-77
2022/09/30 01:53:07;;;;;;;6.95;5.10;;;8.20;99.90;;;;;;5038404;28;20097;-77
2022/09/30 01:56:13;;;;;;;4.50;4.10;;;7.90;99.90;;;;;;5044138;28;20038;-77
2022/09/30 01:59:00;;;;;;;6.80;5.22;;;7.70;99.90;;;;;;5039563;28;20433;-77
2022/09/30 02:01:42;;;;;;;5.50;5.00;;;7.70;99.90;;;;;;5043675;28;20056;-77
2022/09/30 02:04:20;;;;;;;6.13;5.15;;;7.70;99.90;;;;;;5044753;28;20056;-77
2022/09/30 02:06:52;;;;;;;4.68;4.18;;;7.50;99.90;;;;;;5038808;28;20057;-77
2022/09/30 02:09:37;;;;;;;5.95;5.25;;;7.40;99.90;;;;;;5043543;28;20056;-77
2022/09/30 02:12:07;;;;;;;5.68;4.68;;;7.50;99.90;;;;;;5042982;28;20053;-77
2022/09/30 02:14:48;;;;;;;5.10;4.60;;;7.40;99.90;;;;;;5039115;28;20056;-77
2022/09/30 02:17:27;;;;;;;9.82;5.70;;;7.40;99.90;;;;;;5025712;28;20051;-77
2022/09/30 02:20:18;;;;;;;6.40;5.70;;;7.40;99.90;;;;;;5026795;28;20045;-77
2022/09/30 02:22:49;;;;;;;7.07;6.28;;;7.40;99.90;;;;;;5039051;28;20045;-77
2022/09/30 02:25:21;;;;;;;8.73;7.82;;;7.30;99.90;;;;;;5040205;28;20518;-77
2022/09/30 02:27:52;;;;;;;6.80;6.20;;;7.30;99.90;;;;;;5043542;28;20101;-77
2022/09/30 02:30:18;;;;;;;7.15;6.45;;;7.30;99.90;;;;;;5043420;28;20045;-76
2022/09/30 02:32:54;;;;;;;6.25;5.65;;;7.30;99.90;;;;;;5038498;28;20052;-76
2022/09/30 02:35:33;;;;;;;15.13;6.80;;;7.30;99.90;;;;;;5025870;28;20057;-77
2022/09/30 02:38:05;;;;;;;113.35;10.23;;;7.30;99.90;;;;;;5040965;28;20097;-76
2022/09/30 02:40:31;;;;;;;25.55;6.55;;;7.20;99.90;;;;;;5040989;28;20848;-77
2022/09/30 02:42:56;;;;;;;131.02;10.77;;;7.20;99.90;;;;;;5042678;28;20069;-76
2022/09/30 02:45:23;;;;;;;154.10;11.30;;;7.20;99.90;;;;;;5042770;28;20045;-76
2022/09/30 02:48:03;;;;;;;51.58;8.20;;;7.20;99.90;;;;;;5042509;28;20084;-76
2022/09/30 02:50:47;;;;;;;56.72;8.35;;;7.20;99.90;;;;;;5042677;28;20076;-76
2022/09/30 02:53:20;;;;;;;42.95;7.60;;;7.20;99.90;;;;;;5041374;28;20075;-76
2022/09/30 02:56:01;;;;;;;29.05;6.82;;;7.20;99.90;;;;;;5043440;28;20045;-76
2022/09/30 02:58:28;;;;;;;12.65;6.50;;;7.10;99.90;;;;;;5026988;28;20121;-76
2022/09/30 03:00:53;;;;;;;7.72;5.82;;;7.10;99.90;;;;;;5042252;28;20041;-76
2022/09/30 03:03:22;;;;;;;67.25;7.53;;;7.00;99.90;;;;;;5026562;28;20049;-76
2022/09/30 03:05:49;;;;;;;107.80;9.52;;;7.10;99.90;;;;;;5046237;28;20041;-76
2022/09/30 03:08:15;;;;;;;143.45;10.90;;;7.10;99.90;;;;;;5046819;28;20056;-76
2022/09/30 03:10:42;;;;;;;96.63;8.60;;;7.00;99.90;;;;;;5046198;28;20042;-76
2022/09/30 03:13:31;;;;;;;123.13;9.40;;;6.90;99.90;;;;;;5029999;28;20126;-76
2022/09/30 03:16:25;;;;;;;21.07;5.93;;;6.80;99.90;;;;;;5044682;28;20048;-76
2022/09/30 03:19:24;;;;;;;7.80;5.15;;;6.90;99.90;;;;;;5047271;28;20302;-76
2022/09/30 03:22:18;;;;;;;50.55;6.30;;;6.80;99.90;;;;;;5042218;28;20470;-76
2022/09/30 03:25:17;;;;;;;36.38;5.60;;;6.90;99.90;;;;;;5046103;28;20053;-76
2022/09/30 03:28:21;;;;;;;50.17;5.32;;;6.70;99.90;;;;;;5041478;28;20056;-76
2022/09/30 03:31:09;;;;;;;19.05;4.47;;;6.80;99.90;;;;;;5045923;28;20702;-76
2022/09/30 03:33:48;;;;;;;8.07;3.72;;;6.60;99.90;;;;;;5043094;28;20045;-76
2022/09/30 03:37:03;;;;;;;4.30;3.90;;;6.60;99.90;;;;;;5044489;28;20041;-76
2022/09/30 03:39:39;;;;;;;4.00;3.70;;;6.60;99.90;;;;;;5041714;28;20506;-76
2022/09/30 03:42:11;;;;;;;6.90;5.43;;;6.50;99.90;;;;;;5044278;28;20049;-76
2022/09/30 03:45:13;;;;;;;6.47;5.03;;;6.60;99.90;;;;;;5044625;28;20049;-76
2022/09/30 03:47:50;;;;;;;35.08;6.85;;;6.50;99.90;;;;;;5039980;28;20123;-76
2022/09/30 03:50:20;;;;;;;9.45;4.45;;;6.50;99.90;;;;;;5046345;28;20049;-76
2022/09/30 03:52:48;;;;;;;32.97;6.43;;;6.60;99.90;;;;;;5046813;28;20080;-76
2022/09/30 03:55:15;;;;;;;103.50;8.05;;;6.70;99.90;;;;;;5046070;28;20494;-76
2022/09/30 03:57:43;;;;;;;51.80;6.93;;;6.60;99.90;;;;;;5039790;28;20097;-76
2022/09/30 04:00:10;;;;;;;5.97;5.22;;;6.70;99.90;;;;;;5045595;28;20112;-76
2022/09/30 04:02:36;;;;;;;4.90;4.47;;;6.60;99.90;;;;;;5046120;28;20046;-76
2022/09/30 04:05:04;;;;;;;8.40;4.18;;;6.60;99.90;;;;;;5045310;28;20061;-76
2022/09/30 04:07:29;;;;;;;28.08;5.65;;;6.60;99.90;;;;;;5045210;28;20080;-76
2022/09/30 04:09:55;;;;;;;5.47;4.45;;;6.50;99.90;;;;;;5024555;28;20061;-76
2022/09/30 04:12:21;;;;;;;8.25;6.05;;;6.40;99.90;;;;;;5028002;28;20141;-76
2022/09/30 04:14:46;;;;;;;13.23;6.22;;;6.40;99.90;;;;;;5046402;28;20042;-76
2022/09/30 04:17:12;;;;;;;7.32;6.30;;;6.50;99.90;;;;;;5042780;28;20045;-76
2022/09/30 04:19:39;;;;;;;6.50;5.80;;;6.50;99.90;;;;;;5046345;28;20072;-76
2022/09/30 04:22:06;;;;;;;9.05;6.90;;;6.70;99.90;;;;;;5047389;28;20091;-76
2022/09/30 04:24:31;;;;;;;5.35;4.72;;;6.70;99.90;;;;;;5043912;28;20490;-76
2022/09/30 04:26:57;;;;;;;6.57;5.35;;;6.60;99.90;;;;;;5040673;28;20105;-76
2022/09/30 04:29:23;;;;;;;12.23;4.80;;;6.50;99.90;;;;;;5038817;28;20097;-77
2022/09/30 04:31:49;;;;;;;4.45;3.95;;;6.40;99.90;;;;;;5038058;28;20045;-77
2022/09/30 04:34:14;;;;;;;6.82;3.83;;;6.40;99.90;;;;;;5046488;28;20068;-77
2022/09/30 04:36:40;;;;;;;11.70;4.25;;;6.20;99.90;;;;;;5046763;28;20076;-77
2022/09/30 04:39:06;;;;;;;7.95;4.63;;;6.10;99.90;;;;;;5045065;28;20102;-77
2022/09/30 04:41:32;;;;;;;9.77;5.15;;;6.10;99.90;;;;;;5043469;28;20076;-77
2022/09/30 04:43:59;;;;;;;41.83;5.53;;;6.00;99.90;;;;;;5046334;28;20099;-77
2022/09/30 04:46:25;;;;;;;3.90;3.50;;;6.00;99.90;;;;;;5045559;28;20060;-77
2022/09/30 04:48:50;;;;;;;14.77;4.25;;;6.00;99.90;;;;;;5041691;28;20828;-77
2022/09/30 04:51:19;;;;;;;10.65;5.28;;;5.90;99.90;;;;;;5044303;28;20051;-76
2022/09/30 04:53:47;;;;;;;22.05;5.22;;;5.90;99.90;;;;;;5045218;28;20464;-77
2022/09/30 04:56:15;;;;;;;9.68;4.70;;;5.90;99.90;;;;;;5043475;28;20084;-77
2022/09/30 04:58:41;;;;;;;12.80;4.03;;;5.90;99.90;;;;;;5029004;28;20420;-77
2022/09/30 05:01:12;;;;;;;5.45;4.47;;;5.90;99.90;;;;;;5024517;28;20057;-77
2022/09/30 05:03:38;;;;;;;12.40;5.13;;;5.90;99.90;;;;;;5044494;28;20108;-76
2022/09/30 05:06:05;;;;;;;10.25;5.30;;;6.00;99.90;;;;;;5027147;28;20037;-76
2022/09/30 05:08:33;;;;;;;18.95;4.80;;;6.00;99.90;;;;;;5037030;28;20057;-77
2022/09/30 05:11:03;;;;;;;17.75;4.95;;;6.00;99.90;;;;;;5023765;28;20057;-76
2022/09/30 05:13:34;;;;;;;22.48;4.50;;;6.00;99.90;;;;;;4993174;28;20109;-79
2022/09/30 05:16:00;;;;;;;26.33;5.03;;;6.00;99.90;;;;;;5026504;28;20099;-78
2022/09/30 05:18:27;;;;;;;20.98;5.03;;;5.80;99.90;;;;;;5026219;28;20139;-79
2022/09/30 05:20:54;;;;;;;13.50;4.53;;;5.90;99.90;;;;;;5023988;28;20047;-78
2022/09/30 05:23:20;;;;;;;11.65;4.32;;;5.80;99.90;;;;;;5012523;28;20045;-78
2022/09/30 05:25:46;;;;;;;25.88;4.30;;;5.90;99.90;;;;;;5022168;28;20051;-79
2022/09/30 05:28:13;;;;;;;70.00;6.93;;;5.80;99.90;;;;;;5037458;28;20124;-78
2022/09/30 05:30:40;;;;;;;73.50;6.43;;;5.80;99.90;;;;;;5018490;28;20124;-77
2022/09/30 05:33:07;;;;;;;76.20;7.38;;;5.80;99.90;;;;;;5022198;28;20050;-78
2022/09/30 05:35:33;;;;;;;99.10;10.18;;;5.80;99.90;;;;;;5012885;28;20049;-78
2022/09/30 05:37:59;;;;;;;66.97;7.85;;;5.80;99.90;;;;;;5010169;28;20212;-78
2022/09/30 05:40:25;;;;;;;85.63;8.55;;;5.90;99.90;;;;;;5024101;28;20348;-76
2022/09/30 05:42:51;;;;;;;71.03;7.43;;;5.90;99.90;;;;;;5027514;28;20317;-79
2022/09/30 05:45:16;;;;;;;52.70;7.18;;;6.00;99.90;;;;;;5017954;28;20057;-78
2022/09/30 05:47:42;;;;;;;20.67;5.70;;;6.00;99.90;;;;;;5008465;28;20487;-77
2022/09/30 05:50:08;;;;;;;11.10;5.95;;;6.10;99.90;;;;;;5020527;28;20056;-77
2022/09/30 05:52:34;;;;;;;17.42;7.97;;;6.10;99.90;;;;;;5029560;28;20399;-76
2022/09/30 05:55:00;;;;;;;13.15;7.82;;;6.20;99.90;;;;;;5031108;28;20041;-80
2022/09/30 05:57:29;;;;;;;16.05;5.45;;;6.20;99.90;;;;;;5027275;28;20038;-77
2022/09/30 05:59:56;;;;;;;31.02;5.97;;;6.10;99.90;;;;;;5018275;28;20054;-76
2022/09/30 06:02:22;;;;;;;10.95;4.63;;;6.10;99.90;;;;;;5031988;28;20097;-76
2022/09/30 06:04:49;;;;;;;9.23;6.20;;;6.00;99.90;;;;;;5015865;28;20053;-76
2022/09/30 06:07:15;;;;;;;7.30;6.55;;;6.00;99.90;;;;;;5033040;28;20049;-78
2022/09/30 06:09:41;;;;;;;7.50;6.90;;;6.10;99.90;;;;;;4988119;28;20046;-79
2022/09/30 06:12:08;;;;;;;7.70;6.53;;;6.00;99.90;;;;;;5034334;28;20132;-79
2022/09/30 06:14:33;;;;;;;8.00;7.30;;;6.00;99.90;;;;;;4996796;28;20049;-72
2022/09/30 06:16:59;;;;;;;8.23;7.53;;;6.00;99.90;;;;;;5028643;28;20041;-72
2022/09/30 06:19:29;;;;;;;8.65;7.82;;;6.00;99.90;;;;;;5027651;28;20049;-79
2022/09/30 06:21:56;;;;;;;9.25;8.35;;;6.10;99.90;;;;;;5019072;28;20058;-75
2022/09/30 06:24:22;;;;;;;9.45;8.55;;;6.10;99.90;;;;;;5017793;28;20056;-75
2022/09/30 06:26:48;;;;;;;8.60;7.70;;;6.20;99.90;;;;;;5031789;28;20461;-74
2022/09/30 06:29:13;;;;;;;10.10;9.10;;;6.20;99.90;;;;;;5028627;28;20067;-79
2022/09/30 06:31:39;;;;;;;9.38;8.48;;;6.20;99.90;;;;;;5015398;28;20064;-76
2022/09/30 06:34:05;;;;;;;10.63;9.57;;;6.20;99.90;;;;;;5014090;28;20041;-77
2022/09/30 06:36:32;;;;;;;9.73;8.73;;;6.30;99.90;;;;;;5030510;28;20463;-73
2022/09/30 06:39:02;;;;;;;9.68;8.80;;;6.40;99.90;;;;;;5013685;28;20110;-78
2022/09/30 06:41:28;;;;;;;9.23;8.15;;;6.50;99.90;;;;;;5035515;28;20056;-76
2022/09/30 06:43:55;;;;;;;9.05;8.23;;;6.50;99.90;;;;;;5021536;28;20048;-68
2022/09/30 06:46:22;;;;;;;16.48;13.85;;;6.50;99.90;;;;;;5026605;28;20414;-70
2022/09/30 06:48:51;;;;;;;22.30;19.25;;;6.60;99.90;;;;;;5021488;28;20141;-71
2022/09/30 06:51:17;;;;;;;19.85;17.25;;;6.90;99.90;;;;;;5025661;28;20069;-71
2022/09/30 06:53:43;;;;;;;23.73;19.67;;;7.00;99.90;;;;;;5031243;28;20126;-70
2022/09/30 06:56:09;;;;;;;22.08;19.02;;;7.10;99.90;;;;;;5027454;28;20037;-71
2022/09/30 06:58:34;;;;;;;24.33;20.52;;;7.20;99.90;;;;;;5022862;28;20099;-70
2022/09/30 07:01:03;;;;;;;21.73;19.38;;;7.40;99.90;;;;;;5039248;28;20560;-71
2022/09/30 07:03:34;;;;;;;25.38;20.60;;;7.50;99.90;;;;;;5032670;28;20045;-71
2022/09/30 07:06:02;;;;;;;25.52;21.80;;;7.70;99.90;;;;;;5028484;28;20103;-71
2022/09/30 07:08:30;;;;;;;28.20;22.35;;;7.70;99.90;;;;;;5022660;28;20060;-70
2022/09/30 07:11:01;;;;;;;28.35;21.27;;;7.80;99.90;;;;;;5025046;28;20111;-70
2022/09/30 07:13:27;;;;;;;30.30;21.83;;;7.90;99.90;;;;;;5018542;28;20053;-70
2022/09/30 07:15:55;;;;;;;29.40;22.33;;;8.00;99.90;;;;;;5036259;28;20133;-70
2022/09/30 07:18:22;;;;;;;28.85;24.10;;;8.00;99.90;;;;;;5032998;28;20125;-71
2022/09/30 07:20:52;;;;;;;30.13;22.02;;;8.10;99.90;;;;;;5026045;28;20045;-74
2022/09/30 07:23:18;;;;;;;30.15;22.60;;;8.20;99.90;;;;;;5027256;28;20054;-78
2022/09/30 07:25:59;;;;;;;28.75;22.20;;;8.30;99.90;;;;;;5026442;28;20128;-76
2022/09/30 07:28:30;;;;;;;27.75;21.48;;;8.40;99.90;;;;;;5031617;28;20101;-74
2022/09/30 07:30:58;;;;;;;24.85;19.80;;;8.50;99.90;;;;;;5022419;28;20048;-75
2022/09/30 07:33:30;;;;;;;25.25;20.08;;;8.40;99.90;;;;;;5025361;28;20104;-76
2022/09/30 07:35:56;;;;;;;25.60;19.30;;;8.50;99.90;;;;;;5031586;28;20053;-77
2022/09/30 07:38:25;;;;;;;28.52;20.13;;;8.60;99.90;;;;;;5024574;28;20033;-77
2022/09/30 07:40:57;;;;;;;31.08;22.40;;;8.60;99.90;;;;;;5021359;28;20517;-77
2022/09/30 07:43:33;;;;;;;31.83;22.08;;;8.70;99.90;;;;;;5006150;28;20077;-77
2022/09/30 07:46:23;;;;;;;30.55;21.50;;;8.70;99.90;;;;;;5027899;28;20496;-77
2022/09/30 07:48:51;;;;;;;30.77;20.87;;;8.80;99.90;;;;;;5031113;28;20072;-77
2022/09/30 07:51:23;;;;;;;27.35;20.83;;;8.80;99.90;;;;;;5018834;28;20061;-79
2022/09/30 07:53:52;;;;;;;31.83;21.98;;;8.80;99.90;;;;;;5029745;28;20045;-76
2022/09/30 07:56:19;;;;;;;26.90;19.23;;;9.00;99.90;;;;;;5028261;28;20057;-78
2022/09/30 07:58:45;;;;;;;28.80;20.15;;;9.00;99.90;;;;;;5018806;28;20075;-78
2022/09/30 08:01:11;;;;;;;35.13;23.60;;;9.10;99.90;;;;;;5029825;28;20045;-78
2022/09/30 08:03:40;;;;;;;33.67;23.00;;;9.10;99.90;;;;;;5030152;28;20046;-77
2022/09/30 08:06:10;;;;;;;31.33;22.52;;;9.20;99.90;;;;;;5027629;28;20626;-77
2022/09/30 08:08:36;;;;;;;34.22;23.13;;;9.20;99.90;;;;;;5026590;28;20057;-77
2022/09/30 08:11:03;;;;;;;34.05;23.23;;;9.30;99.90;;;;;;5025758;28;20116;-77
2022/09/30 08:13:29;;;;;;;33.13;20.77;;;9.30;99.90;;;;;;5016600;28;20061;-75
2022/09/30 08:15:54;;;;;;;30.65;20.73;;;9.40;99.90;;;;;;5047906;28;20052;-76
2022/09/30 08:18:20;;;;;;;32.15;21.85;;;9.50;99.90;;;;;;5036732;28;20103;-77
2022/09/30 08:20:46;;;;;;;30.55;21.67;;;9.60;99.90;;;;;;5027543;28;20152;-71
2022/09/30 08:23:12;;;;;;;31.38;19.77;;;9.70;99.90;;;;;;5040768;28;20049;-74
2022/09/30 08:25:38;;;;;;;31.05;19.98;;;9.90;99.90;;;;;;5012407;28;20057;-80
2022/09/30 08:28:04;;;;;;;32.08;19.70;;;9.90;99.90;;;;;;5004203;28;20044;-77
2022/09/30 08:30:29;;;;;;;30.63;20.27;;;10.00;99.90;;;;;;5028724;28;20044;-76
2022/09/30 08:32:56;;;;;;;33.17;20.30;;;9.90;99.90;;;;;;5033422;28;20042;-76
2022/09/30 08:35:22;;;;;;;36.10;21.58;;;9.90;99.90;;;;;;5018405;28;20136;-77
2022/09/30 08:37:50;;;;;;;34.72;20.55;;;9.90;99.90;;;;;;5019646;28;20079;-76
2022/09/30 08:40:23;;;;;;;37.35;21.63;;;9.90;99.90;;;;;;5015722;28;20053;-76
2022/09/30 08:43:04;;;;;;;47.83;21.92;;;10.00;99.90;;;;;;5034651;28;20045;-76
2022/09/30 08:45:54;;;;;;;46.60;22.00;;;10.10;99.90;;;;;;5015473;28;20120;-76
2022/09/30 08:48:46;;;;;;;39.72;20.45;;;10.10;99.90;;;;;;5016640;28;20823;-75
2022/09/30 08:51:23;;;;;;;40.10;20.58;;;10.10;99.90;;;;;;5002573;28;20077;-76
2022/09/30 08:53:50;;;;;;;37.78;20.67;;;10.20;99.90;;;;;;5027621;28;20099;-75
2022/09/30 08:56:24;;;;;;;37.47;20.23;;;10.30;99.90;;;;;;5008265;28;20049;-76
2022/09/30 08:58:55;;;;;;;42.83;21.67;;;10.20;99.90;;;;;;5024510;28;20535;-76
2022/09/30 09:01:44;;;;;;;36.05;19.30;;;10.30;99.90;;;;;;5027151;28;20042;-77
2022/09/30 09:04:11;;;;;;;41.95;22.17;;;10.50;99.90;;;;;;5027682;28;20087;-76
2022/09/30 09:06:39;;;;;;;36.63;19.75;;;10.50;99.90;;;;;;5024449;28;20050;-77
2022/09/30 09:09:24;;;;;;;41.33;21.42;;;10.70;99.90;;;;;;5032628;28;20484;-77
2022/09/30 09:11:49;;;;;;;39.05;20.50;;;10.80;99.90;;;;;;5021751;28;20117;-77
2022/09/30 09:14:21;;;;;;;41.00;21.13;;;11.00;99.90;;;;;;5016187;28;20069;-76
2022/09/30 09:17:18;;;;;;;41.20;20.58;;;11.10;99.90;;;;;;5023812;28;20103;-76
2022/09/30 09:19:53;;;;;;;30.92;18.95;;;11.20;99.90;;;;;;5021738;28;20120;-76
2022/09/30 09:22:19;;;;;;;22.85;14.80;;;11.30;99.90;;;;;;5022734;28;20050;-78
2022/09/30 09:24:49;;;;;;;22.63;15.10;;;11.30;99.90;;;;;;5029730;28;20128;-77
2022/09/30 09:27:17;;;;;;;;;;;11.40;99.90;;;;;;5028082;28;20520;-77
2022/09/30 09:29:57;;;;;;;21.08;14.05;;;11.50;99.90;;;;;;5014507;28;19925;-77
2022/09/30 09:32:24;;;;;;;;;;;11.80;99.90;;;;;;5029052;28;20249;-77
2022/09/30 09:34:56;;;;;;;22.13;14.32;;;11.80;99.90;;;;;;5010114;28;20025;-77
2022/09/30 09:38:23;;;;;;;17.45;12.80;;;12.00;99.90;;;;;;5008354;28;20037;-77
2022/09/30 09:40:58;;;;;;;19.45;12.57;;;12.10;99.90;;;;;;5013469;28;20061;-77
2022/09/30 09:43:49;;;;;;;16.45;10.55;;;12.20;99.90;;;;;;5020185;28;20057;-77
2022/09/30 09:46:37;;;;;;;14.18;10.70;;;12.40;99.90;;;;;;5002795;28;20072;-77
2022/09/30 09:49:22;;;;;;;13.88;11.10;;;12.50;99.90;;;;;;5027340;28;20065;-77
2022/09/30 09:52:11;;;;;;;15.55;11.70;;;12.70;99.90;;;;;;5024124;28;20042;-77
2022/09/30 09:54:46;;;;;;;13.30;10.63;;;12.80;99.90;;;;;;5025313;28;20557;-73
2022/09/30 09:57:15;;;;;;;11.77;9.82;;;12.90;99.90;;;;;;5024176;28;20056;-75
2022/09/30 09:59:54;;;;;;;10.32;9.15;;;13.00;99.90;;;;;;5024269;28;20060;-74
2022/09/30 10:02:26;;;;;;;8.65;6.95;;;13.00;99.90;;;;;;5026207;28;20588;-74
2022/09/30 10:04:58;;;;;;;9.13;5.90;;;13.10;99.90;;;;;;5018976;28;20218;-75
2022/09/30 10:07:25;;;;;;;7.20;6.50;;;13.30;99.90;;;;;;5036563;28;20047;-74
2022/09/30 10:10:06;;;;;;;8.07;6.57;;;13.40;99.90;;;;;;5016096;28;20056;-74
2022/09/30 10:12:31;;;;;;;7.75;6.80;;;13.50;99.90;;;;;;5022639;28;20058;-75
2022/09/30 10:15:11;;;;;;;7.25;6.55;;;13.60;99.90;;;;;;4979698;28;20046;-80
2022/09/30 10:17:37;;;;;;;11.05;7.00;;;13.60;99.90;;;;;;5031623;28;20056;-80
2022/09/30 10:20:15;;;;;;;7.20;5.75;;;13.70;99.90;;;;;;5021770;28;20053;-79
2022/09/30 10:22:41;;;;;;;7.82;5.97;;;13.80;99.90;;;;;;5026985;28;20045;-81
2022/09/30 10:25:20;;;;;;;8.07;6.15;;;14.00;99.90;;;;;;5034948;28;20049;-70
2022/09/30 10:28:01;;;;;;;9.77;5.80;;;14.10;99.90;;;;;;5031382;28;20065;-71
2022/09/30 10:30:31;;;;;;;6.55;5.50;;;14.10;99.90;;;;;;5017048;28;20114;-72
2022/09/30 10:32:58;;;;;;;5.40;4.90;;;14.10;99.90;;;;;;5032003;28;20056;-72
2022/09/30 10:35:24;;;;;;;6.18;5.47;;;14.30;99.90;;;;;;5020197;28;20079;-71
2022/09/30 10:37:52;;;;;;;8.35;6.38;;;14.30;99.90;;;;;;5023918;28;20133;-72
2022/09/30 10:40:21;;;;;;;5.90;5.35;;;14.30;99.90;;;;;;5011783;28;20065;-72
2022/09/30 10:42:47;;;;;;;5.73;5.00;;;14.30;99.90;;;;;;5026989;28;20059;-72
2022/09/30 10:45:21;;;;;;;8.00;5.45;;;14.30;99.90;;;;;;5030363;28;20666;-76
2022/09/30 10:47:50;;;;;;;5.25;4.57;;;14.40;99.90;;;;;;5026129;28;20554;-76
2022/09/30 10:50:20;;;;;;;5.85;5.35;;;14.40;99.90;;;;;;5023099;28;20049;-78
2022/09/30 10:52:59;;;;;;;6.80;5.18;;;14.40;99.90;;;;;;5027703;28;20080;-76
2022/09/30 10:55:30;;;;;;;7.18;6.30;;;14.50;99.90;;;;;;5028482;28;20036;-76
2022/09/30 10:58:02;;;;;;;8.02;6.88;;;14.60;99.90;;;;;;5036416;28;20446;-75
2022/09/30 11:00:30;;;;;;;7.30;6.60;;;14.70;99.90;;;;;;5031693;28;20049;-75
2022/09/30 11:03:10;;;;;;;8.48;7.68;;;14.70;99.90;;;;;;5032747;28;20045;-76
2022/09/30 11:05:39;;;;;;;8.27;7.28;;;14.70;99.90;;;;;;5019404;28;20057;-75
2022/09/30 11:08:14;;;;;;;9.05;8.15;;;14.80;99.90;;;;;;5032452;28;20034;-75
2022/09/30 11:10:47;;;;;;;12.45;9.43;;;14.90;99.90;;;;;;5010742;28;20513;-75
2022/09/30 11:13:41;;;;;;;10.05;9.05;;;14.90;99.90;;;;;;5021408;28;20046;-75
2022/09/30 11:16:44;;;;;;;10.52;9.43;;;14.70;99.90;;;;;;5010616;28;20104;-75
2022/09/30 11:19:22;;;;;;;12.27;10.90;;;14.60;99.90;;;;;;5005709;28;20057;-75
2022/09/30 11:21:56;;;;;;;10.40;9.25;;;14.60;99.90;;;;;;5033448;28;20087;-75
2022/09/30 11:24:35;;;;;;;9.80;8.32;;;14.70;99.90;;;;;;5025940;28;20042;-75
2022/09/30 11:27:04;;;;;;;12.65;10.23;;;14.90;99.90;;;;;;5049680;28;20068;-74
2022/09/30 11:29:46;;;;;;;11.07;9.95;;;14.90;99.90;;;;;;5032138;28;20053;-75
2022/09/30 11:32:54;;;;;;;9.88;8.68;;;14.90;99.90;;;;;;5050918;28;20042;-77
2022/09/30 11:35:35;;;;;;;9.70;7.50;;;15.00;99.90;;;;;;5022374;28;20056;-76
2022/09/30 11:38:25;;;;;;;8.50;6.90;;;15.00;99.90;;;;;;5017095;28;20056;-76
2022/09/30 11:41:06;;;;;;;8.73;6.30;;;15.10;99.90;;;;;;5023595;28;20050;-74
2022/09/30 11:44:06;;;;;;;8.90;6.10;;;15.00;99.90;;;;;;5008159;28;20042;-73
2022/09/30 11:46:37;;;;;;;6.85;5.32;;;15.00;99.90;;;;;;5010409;28;20069;-73
2022/09/30 11:49:41;;;;;;;6.03;4.40;;;15.00;99.90;;;;;;5033360;28;20038;-74
2022/09/30 11:52:22;;;;;;;5.18;4.13;;;15.20;99.90;;;;;;5009227;28;20049;-73
2022/09/30 11:55:07;;;;;;;5.57;4.72;;;15.30;99.90;;;;;;5020665;28;20072;-73
2022/09/30 11:57:50;;;;;;;5.72;5.07;;;15.40;99.90;;;;;;5031799;28;20077;-72
2022/09/30 12:00:19;;;;;;;7.25;5.35;;;15.60;99.90;;;;;;5014060;28;20072;-72
2022/09/30 12:03:09;;;;;;;5.78;4.50;;;15.60;99.90;;;;;;5021640;28;20076;-72
2022/09/30 12:05:42;;;;;;;8.60;5.72;;;15.60;99.90;;;;;;5032195;28;20045;-73
2022/09/30 12:08:32;;;;;;;7.75;5.20;;;15.40;99.90;;;;;;5042266;28;20049;-73
2022/09/30 12:11:19;;;;;;;7.28;5.13;;;15.40;99.90;;;;;;5042410;28;20048;-73
2022/09/30 12:13:58;;;;;;;5.55;4.93;;;15.40;99.90;;;;;;5022409;28;20061;-75
2022/09/30 12:16:28;;;;;;;5.15;3.97;;;15.40;99.90;;;;;;5038984;28;20072;-75
2022/09/30 12:19:10;;;;;;;6.75;5.32;;;15.30;99.90;;;;;;5037602;28;20095;-75
2022/09/30 12:21:52;;;;;;;7.93;5.90;;;15.20;99.90;;;;;;5026488;28;20073;-75
2022/09/30 12:24:28;;;;;;;9.05;5.85;;;15.20;99.90;;;;;;5022651;28;20112;-74
2022/09/30 12:26:54;;;;;;;6.15;5.55;;;15.30;99.90;;;;;;5018893;28;20538;-74
2022/09/30 12:32:48;;;;;;;7.15;6.07;;;15.70;99.90;;;;;;5035107;28;20064;-74
2022/09/30 12:35:18;;;;;;;11.65;7.32;;;16.70;99.90;;;;;;5002089;28;20049;-75
2022/09/30 12:38:14;;;;;;;8.45;6.72;;;17.80;99.90;;;;;;5011688;28;20064;-74
2022/09/30 12:40:48;;;;;;;9.10;7.65;;;18.70;99.90;;;;;;5020495;28;20498;-73
2022/09/30 12:43:16;;;;;;;8.85;7.47;;;18.70;99.90;;;;;;5030330;28;20049;-74
2022/09/30 12:46:23;;;;;;;9.25;7.75;;;18.50;99.90;;;;;;5008791;28;20053;-74
2022/09/30 12:48:57;;;;;;;7.40;6.57;;;18.40;99.90;;;;;;5045543;28;20053;-75
2022/09/30 12:51:30;;;;;;;10.00;7.30;;;19.20;99.90;;;;;;5005359;28;20045;-71
2022/09/30 12:54:03;;;;;;;8.50;7.40;;;20.00;99.90;;;;;;5029988;28;20097;-73
2022/09/30 12:56:30;;;;;;;8.15;7.13;;;20.20;99.90;;;;;;5025560;28;20083;-74
2022/09/30 12:58:59;;;;;;;7.63;6.78;;;19.70;99.90;;;;;;5035270;28;20053;-74
2022/09/30 13:01:31;;;;;;;10.32;7.95;;;19.80;99.90;;;;;;5024424;28;20049;-75
2022/09/30 13:03:59;;;;;;;10.10;8.05;;;20.20;99.90;;;;;;5027721;28;20050;-76
2022/09/30 13:06:45;;;;;;;11.18;8.32;;;20.30;99.90;;;;;;5015905;28;20068;-76
2022/09/30 13:09:21;;;;;;;9.25;7.97;;;20.80;99.90;;;;;;4997551;28;20438;-76
2022/09/30 13:11:53;;;;;;;9.55;7.25;;;20.70;99.90;;;;;;5004076;28;20073;-77
2022/09/30 13:14:38;;;;;;;8.68;7.22;;;20.80;99.90;;;;;;5004027;28;20053;-74
2022/09/30 13:17:06;;;;;;;7.22;6.47;;;20.60;99.90;;;;;;5009143;28;20049;-79
2022/09/30 13:19:41;;;;;;;7.10;6.38;;;20.00;99.90;;;;;;5009312;28;20465;-73
2022/09/30 13:22:19;;;;;;;7.93;6.72;;;19.40;99.90;;;;;;5017514;28;20715;-74